Brilliance Of The Seas — C6SJ5 — position and weather

sailwx.info

Track history (hours):
 
Tides and Currents Weather Stations Pressure Air Temp Water Temp Dewpoint Dewpoint Depression Visibility Wind Speed Wind Dir Waves Ship Positions

Brilliance Of The Seas

Operator: Royal Caribbean Cruises Ltd

Last reported at 2019-Feb-23 17:28 UTC. Time now 2019-Feb-23 17:38 UTC.
Position N 27°57' W 082°27'.

Type: Ship. MMSI: 311361000.

Date/timePositionNaut miles runAvg speedWind from/ knotsBaromVisibWave heightAir tempDewpointWater temp
2019-Feb-23 17:28N 27°57' W 082°27'0 0.0
2019-Feb-23 16:58N 27°57' W 082°27'0 0.0
2019-Feb-23 16:28N 27°57' W 082°27'0 0.0
2019-Feb-23 15:58N 27°57' W 082°27'0 0.0
2019-Feb-23 15:28N 27°57' W 082°27'0 0.0
2019-Feb-23 14:58N 27°57' W 082°27'0 0.0
2019-Feb-23 14:28N 27°57' W 082°27'0 0.0
2019-Feb-23 13:58N 27°57' W 082°27'0 0.0
2019-Feb-23 13:28N 27°57' W 082°27'0 0.0
2019-Feb-23 12:58N 27°57' W 082°27'0 0.0
2019-Feb-23 12:28N 27°57' W 082°27'0 0.0
2019-Feb-23 11:58N 27°57' W 082°27'0 0.5
2019-Feb-23 11:30N 27°57' W 082°27'2 3.3
2019-Feb-23 11:00N 27°55' W 082°27'4 8.2
2019-Feb-23 10:30N 27°51' W 082°27'14513.8
2019-Feb-23 00:00N 25°48' W 083°54'5513.8 120 / 131019.510.8 25.023.526.0
2019-Feb-22 20:00N 25°00' W 084°24'4013.2 120 / 241019.510.8 26.023.227.0
2019-Feb-22 17:00N 24°24' W 084°42'4214.0 120 / 231020.510.8 27.022.727.0
2019-Feb-22 14:00N 23°48' W 085°06'21815.0 110 / 191020.510.8 27.022.727.0
2019-Feb-21 23:30N 20°36' W 086°57'713.9
2019-Feb-21 23:00N 20°29' W 086°59'1 1.1
2019-Feb-21 22:29N 20°29' W 086°59'0 0.0
2019-Feb-21 21:59N 20°29' W 086°59'0 0.0
2019-Feb-21 21:29N 20°29' W 086°59'0 0.0
2019-Feb-21 20:59N 20°29' W 086°59'0 0.0
2019-Feb-21 20:29N 20°29' W 086°59'0 0.0
2019-Feb-21 19:59N 20°29' W 086°59'0 0.0
2019-Feb-21 19:29N 20°29' W 086°59'0 0.0
2019-Feb-21 18:59N 20°29' W 086°59'0 0.0
2019-Feb-21 18:29N 20°29' W 086°59'0 0.0
2019-Feb-21 17:59N 20°29' W 086°59'0 0.0
2019-Feb-21 17:29N 20°29' W 086°59'0 0.0
2019-Feb-21 16:59N 20°29' W 086°59'0 0.0
2019-Feb-21 16:29N 20°29' W 086°59'0 0.0
2019-Feb-21 15:59N 20°29' W 086°59'0 0.0
2019-Feb-21 15:29N 20°29' W 086°59'0 0.0
2019-Feb-21 14:59N 20°29' W 086°59'0 0.0
2019-Feb-21 14:29N 20°29' W 086°59'0 0.0
2019-Feb-21 13:59N 20°29' W 086°59'0 0.0
2019-Feb-21 13:29N 20°29' W 086°59'0 0.0
2019-Feb-21 12:59N 20°29' W 086°59'0 0.0
2019-Feb-21 12:26N 20°29' W 086°59'1 1.9
2019-Feb-21 12:00N 20°30' W 086°59'5 9.4
2019-Feb-21 11:30N 20°34' W 086°58'510.9
2019-Feb-21 11:00N 20°39' W 086°54'109 9.9
2019-Feb-21 00:00N 21°54' W 085°30'7312.2 120 / 281014.510.8 26.024.627.0
2019-Feb-20 18:00N 22°42' W 084°30'2010.2 130 / 131017.510.8 27.022.727.0
2019-Feb-20 16:00N 22°54' W 084°12'3311.0 070 / 101019.510.8 26.022.227.0
2019-Feb-20 13:00N 23°12' W 083°42'2010.2 080 / 61018.510.8 25.022.427.0
2019-Feb-20 11:00N 23°24' W 083°24'58 8.3 130 / 181017.510.8 25.022.427.0
2019-Feb-20 04:00N 23°54' W 082°30'37 2.2 100 / 141018.510.8 26.024.622.0
2019-Feb-19 11:00N 24°24' W 082°54'20316.9 090 / 191020.510.8 25.022.423.0
2019-Feb-18 23:01N 27°46' W 082°31'014.4
2019-Feb-18 23:00N 27°46' W 082°31'4 8.2
2019-Feb-18 22:30N 27°48' W 082°28'4 7.6
2019-Feb-18 22:00N 27°52' W 082°27'4 7.1
2019-Feb-18 21:30N 27°55' W 082°27'1 2.6
2019-Feb-18 21:00N 27°57' W 082°27'0 0.1
2019-Feb-18 20:28N 27°57' W 082°27'0 0.0
2019-Feb-18 19:58N 27°57' W 082°27'0 0.0
2019-Feb-18 19:28N 27°57' W 082°27'0 0.0
2019-Feb-18 18:55N 27°57' W 082°27'0 0.0
2019-Feb-18 18:28N 27°57' W 082°27'0 0.0
2019-Feb-18 17:58N 27°57' W 082°27'0 0.0
2019-Feb-18 17:28N 27°57' W 082°27'0 0.0
2019-Feb-18 16:58N 27°57' W 082°27'0 0.0
2019-Feb-18 16:28N 27°57' W 082°27'0 0.0
2019-Feb-18 15:58N 27°57' W 082°27'0 0.0
2019-Feb-18 15:28N 27°57' W 082°27'0 0.0
2019-Feb-18 14:58N 27°57' W 082°27'0 0.0
2019-Feb-18 14:28N 27°57' W 082°27'0 0.0
2019-Feb-18 13:58N 27°57' W 082°27'0 0.0
2019-Feb-18 13:28N 27°57' W 082°27'0 0.0
2019-Feb-18 12:55N 27°57' W 082°27'0 0.0
2019-Feb-18 12:28N 27°57' W 082°27'0 0.0
2019-Feb-18 11:58N 27°57' W 082°27'1 1.1
2019-Feb-18 11:30N 27°56' W 082°27'2 3.9
2019-Feb-18 11:00N 27°54' W 082°26'5 9.1
2019-Feb-18 10:30N 27°50' W 082°27'19213.2
2019-Feb-17 20:00N 25°06' W 084°18'7414.7 160 / 201014.510.8 26.021.927.0
2019-Feb-17 15:00N 24°00' W 084°54'2613.2 170 / 201016.510.8 27.021.627.0
2019-Feb-17 13:00N 23°36' W 085°06'7414.8 170 / 191015.510.8 26.021.927.0
2019-Feb-17 08:00N 22°30' W 085°42'6115.2 150 / 191012.510.8 26.023.627.0
2019-Feb-17 04:00N 21°36' W 086°12'7316.7 140 / 231011.510.8 26.024.627.0
2019-Feb-16 23:38N 20°36' W 086°57'216.4
2019-Feb-16 23:30N 20°35' W 086°58'611.1
2019-Feb-16 23:01N 20°29' W 086°59'0 0.5
2019-Feb-16 22:26N 20°29' W 086°59'0 0.0
2019-Feb-16 21:59N 20°29' W 086°59'0 0.0
2019-Feb-16 21:29N 20°29' W 086°59'0 0.0
2019-Feb-16 20:56N 20°29' W 086°59'0 0.0
2019-Feb-16 20:29N 20°29' W 086°59'0 0.0
2019-Feb-16 19:59N 20°29' W 086°59'0 0.0
2019-Feb-16 19:29N 20°29' W 086°59'0 0.0
2019-Feb-16 18:56N 20°29' W 086°59'0 0.0
2019-Feb-16 18:29N 20°29' W 086°59'0 0.0
2019-Feb-16 17:59N 20°29' W 086°59'0 0.0
2019-Feb-16 17:29N 20°29' W 086°59'0 0.0
2019-Feb-16 16:56N 20°29' W 086°59'0 0.0
2019-Feb-16 16:26N 20°29' W 086°59'0 0.0
2019-Feb-16 15:59N 20°29' W 086°59'0 0.0
2019-Feb-16 15:29N 20°29' W 086°59'0 0.0
2019-Feb-16 14:59N 20°29' W 086°59'0 0.0
2019-Feb-16 14:29N 20°29' W 086°59'0 0.0
2019-Feb-16 13:53N 20°29' W 086°59'0 0.0
2019-Feb-16 13:29N 20°29' W 086°59'0 0.0
2019-Feb-16 12:59N 20°29' W 086°59'0 0.1
2019-Feb-16 12:30N 20°29' W 086°59'3 5.9
2019-Feb-16 12:00N 20°32' W 086°59'611.6
2019-Feb-16 11:28N 20°37' W 086°56'32613.3
2019-Feb-15 11:00N 25°24' W 084°06'17513.1 070 / 101016.510.8 20.017.527.0
2019-Feb-14 21:40N 27°54' W 082°26'1 4.4
2019-Feb-14 21:30N 27°55' W 082°27'2 3.6
2019-Feb-14 21:00N 27°57' W 082°27'0 0.0
2019-Feb-14 20:28N 27°57' W 082°27'0 0.0
2019-Feb-14 19:58N 27°57' W 082°27'0 0.0
2019-Feb-14 19:28N 27°57' W 082°27'0 0.0
2019-Feb-14 18:58N 27°57' W 082°27'0 0.0
2019-Feb-14 18:28N 27°57' W 082°27'0 0.0
2019-Feb-14 17:58N 27°57' W 082°27'0 0.0
2019-Feb-14 17:28N 27°57' W 082°27'0 0.0
2019-Feb-14 16:58N 27°57' W 082°27'0 0.0
2019-Feb-14 16:28N 27°57' W 082°27'0 0.0
2019-Feb-14 15:58N 27°57' W 082°27'0 0.0
2019-Feb-14 15:28N 27°57' W 082°27'0 0.0
2019-Feb-14 14:58N 27°57' W 082°27'0 0.0
2019-Feb-14 14:28N 27°57' W 082°27'0 0.0
2019-Feb-14 13:58N 27°57' W 082°27'0 0.0
2019-Feb-14 13:28N 27°57' W 082°27'0 0.0
2019-Feb-14 12:58N 27°57' W 082°27'0 0.0
2019-Feb-14 12:28N 27°57' W 082°27'0 0.0
2019-Feb-14 11:58N 27°57' W 082°27'0 0.4
2019-Feb-14 11:30N 27°57' W 082°27'1 2.5
2019-Feb-14 11:00N 27°55' W 082°27'3 6.3
2019-Feb-14 10:30N 27°52' W 082°27'2911.6
2019-Feb-14 08:00N 27°36' W 082°54'11516.5 020 / 241022.510.8 14.011.417.0
2019-Feb-14 01:00N 25°54' W 083°54'8714.5 360 / 231015.510.8 18.014.620.0
2019-Feb-13 19:00N 24°36' W 084°36'   020 / 211020.510.8 22.016.827.0
Track history (hours):
 
Tides and Currents Weather Stations Pressure Air Temp Water Temp Dewpoint Dewpoint Depression Visibility Wind Speed Wind Dir Waves Ship Positions

Brilliance Of The Seas

Operator: Royal Caribbean Cruises Ltd

Last reported at 2019-Feb-23 17:28 UTC. Time now 2019-Feb-23 17:38 UTC.
Position N 27°57' W 082°27'.

Type: Ship. MMSI: 311361000.

Date/timePositionNaut miles runAvg speedWind from/ knotsBaromVisibWave heightAir tempDewpointWater temp
2019-Feb-23 17:28N 27°57' W 082°27'0 0.0
2019-Feb-23 16:58N 27°57' W 082°27'0 0.0
2019-Feb-23 16:28N 27°57' W 082°27'0 0.0
2019-Feb-23 15:58N 27°57' W 082°27'0 0.0
2019-Feb-23 15:28N 27°57' W 082°27'0 0.0
2019-Feb-23 14:58N 27°57' W 082°27'0 0.0
2019-Feb-23 14:28N 27°57' W 082°27'0 0.0
2019-Feb-23 13:58N 27°57' W 082°27'0 0.0
2019-Feb-23 13:28N 27°57' W 082°27'0 0.0
2019-Feb-23 12:58N 27°57' W 082°27'0 0.0
2019-Feb-23 12:28N 27°57' W 082°27'0 0.0
2019-Feb-23 11:58N 27°57' W 082°27'0 0.5
2019-Feb-23 11:30N 27°57' W 082°27'2 3.3
2019-Feb-23 11:00N 27°55' W 082°27'4 8.2
2019-Feb-23 10:30N 27°51' W 082°27'14513.8
2019-Feb-23 00:00N 25°48' W 083°54'5513.8 120 / 131019.510.8 25.023.526.0
2019-Feb-22 20:00N 25°00' W 084°24'4013.2 120 / 241019.510.8 26.023.227.0
2019-Feb-22 17:00N 24°24' W 084°42'4214.0 120 / 231020.510.8 27.022.727.0
2019-Feb-22 14:00N 23°48' W 085°06'21815.0 110 / 191020.510.8 27.022.727.0
2019-Feb-21 23:30N 20°36' W 086°57'713.9
2019-Feb-21 23:00N 20°29' W 086°59'1 1.1
2019-Feb-21 22:29N 20°29' W 086°59'0 0.0
2019-Feb-21 21:59N 20°29' W 086°59'0 0.0
2019-Feb-21 21:29N 20°29' W 086°59'0 0.0
2019-Feb-21 20:59N 20°29' W 086°59'0 0.0
2019-Feb-21 20:29N 20°29' W 086°59'0 0.0
2019-Feb-21 19:59N 20°29' W 086°59'0 0.0
2019-Feb-21 19:29N 20°29' W 086°59'0 0.0
2019-Feb-21 18:59N 20°29' W 086°59'0 0.0
2019-Feb-21 18:29N 20°29' W 086°59'0 0.0
2019-Feb-21 17:59N 20°29' W 086°59'0 0.0
2019-Feb-21 17:29N 20°29' W 086°59'0 0.0
2019-Feb-21 16:59N 20°29' W 086°59'0 0.0
2019-Feb-21 16:29N 20°29' W 086°59'0 0.0
2019-Feb-21 15:59N 20°29' W 086°59'0 0.0
2019-Feb-21 15:29N 20°29' W 086°59'0 0.0
2019-Feb-21 14:59N 20°29' W 086°59'0 0.0
2019-Feb-21 14:29N 20°29' W 086°59'0 0.0
2019-Feb-21 13:59N 20°29' W 086°59'0 0.0
2019-Feb-21 13:29N 20°29' W 086°59'0 0.0
2019-Feb-21 12:59N 20°29' W 086°59'0 0.0
2019-Feb-21 12:26N 20°29' W 086°59'1 1.9
2019-Feb-21 12:00N 20°30' W 086°59'5 9.4
2019-Feb-21 11:30N 20°34' W 086°58'510.9
2019-Feb-21 11:00N 20°39' W 086°54'109 9.9
2019-Feb-21 00:00N 21°54' W 085°30'7312.2 120 / 281014.510.8 26.024.627.0
2019-Feb-20 18:00N 22°42' W 084°30'2010.2 130 / 131017.510.8 27.022.727.0
2019-Feb-20 16:00N 22°54' W 084°12'3311.0 070 / 101019.510.8 26.022.227.0
2019-Feb-20 13:00N 23°12' W 083°42'2010.2 080 / 61018.510.8 25.022.427.0
2019-Feb-20 11:00N 23°24' W 083°24'58 8.3 130 / 181017.510.8 25.022.427.0
2019-Feb-20 04:00N 23°54' W 082°30'37 2.2 100 / 141018.510.8 26.024.622.0
2019-Feb-19 11:00N 24°24' W 082°54'20316.9 090 / 191020.510.8 25.022.423.0
2019-Feb-18 23:01N 27°46' W 082°31'014.4
2019-Feb-18 23:00N 27°46' W 082°31'4 8.2
2019-Feb-18 22:30N 27°48' W 082°28'4 7.6
2019-Feb-18 22:00N 27°52' W 082°27'4 7.1
2019-Feb-18 21:30N 27°55' W 082°27'1 2.6
2019-Feb-18 21:00N 27°57' W 082°27'0 0.1
2019-Feb-18 20:28N 27°57' W 082°27'0 0.0
2019-Feb-18 19:58N 27°57' W 082°27'0 0.0
2019-Feb-18 19:28N 27°57' W 082°27'0 0.0
2019-Feb-18 18:55N 27°57' W 082°27'0 0.0
2019-Feb-18 18:28N 27°57' W 082°27'0 0.0
2019-Feb-18 17:58N 27°57' W 082°27'0 0.0
2019-Feb-18 17:28N 27°57' W 082°27'0 0.0
2019-Feb-18 16:58N 27°57' W 082°27'0 0.0
2019-Feb-18 16:28N 27°57' W 082°27'0 0.0
2019-Feb-18 15:58N 27°57' W 082°27'0 0.0
2019-Feb-18 15:28N 27°57' W 082°27'0 0.0
2019-Feb-18 14:58N 27°57' W 082°27'0 0.0
2019-Feb-18 14:28N 27°57' W 082°27'0 0.0
2019-Feb-18 13:58N 27°57' W 082°27'0 0.0
2019-Feb-18 13:28N 27°57' W 082°27'0 0.0
2019-Feb-18 12:55N 27°57' W 082°27'0 0.0
2019-Feb-18 12:28N 27°57' W 082°27'0 0.0
2019-Feb-18 11:58N 27°57' W 082°27'1 1.1
2019-Feb-18 11:30N 27°56' W 082°27'2 3.9
2019-Feb-18 11:00N 27°54' W 082°26'5 9.1
2019-Feb-18 10:30N 27°50' W 082°27'19213.2
2019-Feb-17 20:00N 25°06' W 084°18'7414.7 160 / 201014.510.8 26.021.927.0
2019-Feb-17 15:00N 24°00' W 084°54'2613.2 170 / 201016.510.8 27.021.627.0
2019-Feb-17 13:00N 23°36' W 085°06'7414.8 170 / 191015.510.8 26.021.927.0
2019-Feb-17 08:00N 22°30' W 085°42'6115.2 150 / 191012.510.8 26.023.627.0
2019-Feb-17 04:00N 21°36' W 086°12'7316.7 140 / 231011.510.8 26.024.627.0
2019-Feb-16 23:38N 20°36' W 086°57'216.4
2019-Feb-16 23:30N 20°35' W 086°58'611.1
2019-Feb-16 23:01N 20°29' W 086°59'0 0.5
2019-Feb-16 22:26N 20°29' W 086°59'0 0.0
2019-Feb-16 21:59N 20°29' W 086°59'0 0.0
2019-Feb-16 21:29N 20°29' W 086°59'0 0.0
2019-Feb-16 20:56N 20°29' W 086°59'0 0.0
2019-Feb-16 20:29N 20°29' W 086°59'0 0.0
2019-Feb-16 19:59N 20°29' W 086°59'0 0.0
2019-Feb-16 19:29N 20°29' W 086°59'0 0.0
2019-Feb-16 18:56N 20°29' W 086°59'0 0.0
2019-Feb-16 18:29N 20°29' W 086°59'0 0.0
2019-Feb-16 17:59N 20°29' W 086°59'0 0.0
2019-Feb-16 17:29N 20°29' W 086°59'0 0.0
2019-Feb-16 16:56N 20°29' W 086°59'0 0.0
2019-Feb-16 16:26N 20°29' W 086°59'0 0.0
2019-Feb-16 15:59N 20°29' W 086°59'0 0.0
2019-Feb-16 15:29N 20°29' W 086°59'0 0.0
2019-Feb-16 14:59N 20°29' W 086°59'0 0.0
2019-Feb-16 14:29N 20°29' W 086°59'0 0.0
2019-Feb-16 13:53N 20°29' W 086°59'0 0.0
2019-Feb-16 13:29N 20°29' W 086°59'0 0.0
2019-Feb-16 12:59N 20°29' W 086°59'0 0.1
2019-Feb-16 12:30N 20°29' W 086°59'3 5.9
2019-Feb-16 12:00N 20°32' W 086°59'611.6
2019-Feb-16 11:28N 20°37' W 086°56'32613.3
2019-Feb-15 11:00N 25°24' W 084°06'17513.1 070 / 101016.510.8 20.017.527.0
2019-Feb-14 21:40N 27°54' W 082°26'1 4.4
2019-Feb-14 21:30N 27°55' W 082°27'2 3.6
2019-Feb-14 21:00N 27°57' W 082°27'0 0.0
2019-Feb-14 20:28N 27°57' W 082°27'0 0.0
2019-Feb-14 19:58N 27°57' W 082°27'0 0.0
2019-Feb-14 19:28N 27°57' W 082°27'0 0.0
2019-Feb-14 18:58N 27°57' W 082°27'0 0.0
2019-Feb-14 18:28N 27°57' W 082°27'0 0.0
2019-Feb-14 17:58N 27°57' W 082°27'0 0.0
2019-Feb-14 17:28N 27°57' W 082°27'0 0.0
2019-Feb-14 16:58N 27°57' W 082°27'0 0.0
2019-Feb-14 16:28N 27°57' W 082°27'0 0.0
2019-Feb-14 15:58N 27°57' W 082°27'0 0.0
2019-Feb-14 15:28N 27°57' W 082°27'0 0.0
2019-Feb-14 14:58N 27°57' W 082°27'0 0.0
2019-Feb-14 14:28N 27°57' W 082°27'0 0.0
2019-Feb-14 13:58N 27°57' W 082°27'0 0.0
2019-Feb-14 13:28N 27°57' W 082°27'0 0.0
2019-Feb-14 12:58N 27°57' W 082°27'0 0.0
2019-Feb-14 12:28N 27°57' W 082°27'0 0.0
2019-Feb-14 11:58N 27°57' W 082°27'0 0.4
2019-Feb-14 11:30N 27°57' W 082°27'1 2.5
2019-Feb-14 11:00N 27°55' W 082°27'3 6.3
2019-Feb-14 10:30N 27°52' W 082°27'2911.6
2019-Feb-14 08:00N 27°36' W 082°54'11516.5 020 / 241022.510.8 14.011.417.0
2019-Feb-14 01:00N 25°54' W 083°54'8714.5 360 / 231015.510.8 18.014.620.0
2019-Feb-13 19:00N 24°36' W 084°36'   020 / 211020.510.8 22.016.827.0

Dump ship's entire track history